createdAt,value
2018-05-05T00:02:04.857Z,2.30
2018-05-05T00:04:32.322Z,2.30
2018-05-05T00:06:59.799Z,2.10
2018-05-05T00:09:27.224Z,2.25
2018-05-05T00:11:54.747Z,2.53
2018-05-05T00:14:22.172Z,1.83
2018-05-05T00:16:49.585Z,2.22
2018-05-05T00:19:17.023Z,2.42
2018-05-05T00:21:45.207Z,2.50
2018-05-05T00:24:13.424Z,1.90
2018-05-05T00:26:40.887Z,2.17
2018-05-05T00:29:09.218Z,2.50
2018-05-05T00:31:36.746Z,1.92
2018-05-05T00:34:04.178Z,2.35
2018-05-05T00:36:31.689Z,2.20
2018-05-05T00:38:59.162Z,2.25
2018-05-05T00:41:26.630Z,1.95
2018-05-05T00:43:54.051Z,2.25
2018-05-05T00:46:22.242Z,1.98
2018-05-05T00:48:49.666Z,2.30
2018-05-05T00:51:17.098Z,1.77
2018-05-05T00:53:45.322Z,1.95
2018-05-05T00:56:12.782Z,2.10
2018-05-05T00:58:40.246Z,2.12
2018-05-05T01:01:07.680Z,2.50
2018-05-05T01:03:35.094Z,2.00
2018-05-05T01:06:02.558Z,2.28
2018-05-05T01:08:29.974Z,2.05
2018-05-05T01:10:57.494Z,2.10
2018-05-05T01:13:24.966Z,1.80
2018-05-05T01:15:52.427Z,2.00
2018-05-05T01:18:19.842Z,2.35
2018-05-05T01:20:47.274Z,2.25
2018-05-05T01:23:14.743Z,1.98
2018-05-05T01:25:42.161Z,1.80
2018-05-05T01:28:09.580Z,2.08
2018-05-05T01:30:37.054Z,2.12
2018-05-05T01:33:04.518Z,1.90
2018-05-05T01:35:31.990Z,1.80
2018-05-05T01:37:59.422Z,2.55
2018-05-05T01:40:26.926Z,1.95
2018-05-05T01:42:54.403Z,2.03
2018-05-05T01:45:21.867Z,2.15
2018-05-05T01:47:49.294Z,1.90
2018-05-05T01:50:16.810Z,2.05
2018-05-05T01:52:44.242Z,2.08
2018-05-05T01:55:11.747Z,2.42
2018-05-05T01:57:39.177Z,2.30
2018-05-05T02:00:06.687Z,2.20
2018-05-05T02:02:34.162Z,2.12
2018-05-05T02:05:01.627Z,1.65
2018-05-05T02:07:29.050Z,2.40
2018-05-05T02:09:56.470Z,1.60
2018-05-05T02:12:23.943Z,1.65
2018-05-05T02:14:51.369Z,1.70
2018-05-05T02:17:20.307Z,2.10
2018-05-05T02:19:47.779Z,1.87
2018-05-05T02:22:15.195Z,2.03
2018-05-05T02:24:42.624Z,1.85
2018-05-05T02:27:10.035Z,1.77
2018-05-05T02:29:37.463Z,1.85
2018-05-05T02:32:04.878Z,1.80
2018-05-05T02:34:32.403Z,1.92
2018-05-05T02:36:59.866Z,1.80
2018-05-05T02:39:27.290Z,1.98
2018-05-05T02:41:55.474Z,2.10
2018-05-05T02:44:24.409Z,1.92
2018-05-05T02:46:51.830Z,1.50
2018-05-05T02:49:19.362Z,1.75
2018-05-05T02:51:46.787Z,1.90
2018-05-05T02:54:14.208Z,1.70
2018-05-05T02:56:41.629Z,1.50
2018-05-05T02:59:09.819Z,1.60
2018-05-05T03:01:37.326Z,1.70
2018-05-05T03:04:04.747Z,1.98
2018-05-05T03:06:32.166Z,1.60
2018-05-05T03:08:59.634Z,1.67
2018-05-05T03:11:27.065Z,1.95
2018-05-05T03:13:54.582Z,1.60
2018-05-05T03:16:22.051Z,2.10
2018-05-05T03:18:49.474Z,1.52
2018-05-05T03:21:16.987Z,2.00
2018-05-05T03:23:44.403Z,1.48
2018-05-05T03:26:12.030Z,1.50
2018-05-05T03:28:39.459Z,1.67
2018-05-05T03:31:06.972Z,1.75
2018-05-05T03:33:34.382Z,1.45
2018-05-05T03:36:01.913Z,1.23
2018-05-05T03:38:29.330Z,1.55
2018-05-05T03:40:56.850Z,1.60
2018-05-05T03:43:24.318Z,1.70
2018-05-05T03:45:51.795Z,1.73
2018-05-05T03:48:20.018Z,1.42
2018-05-05T03:50:47.450Z,1.30
2018-05-05T03:53:14.878Z,1.60
2018-05-05T03:55:43.062Z,1.70
2018-05-05T03:58:10.505Z,1.48
2018-05-05T04:00:49.918Z,1.42
2018-05-05T04:03:29.326Z,1.90
2018-05-05T04:05:56.847Z,1.75
2018-05-05T04:08:24.283Z,1.50
2018-05-05T04:10:51.693Z,1.52
2018-05-05T04:13:19.117Z,1.40
2018-05-05T04:15:47.334Z,1.92
2018-05-05T04:18:14.760Z,1.37
2018-05-05T04:20:42.185Z,1.80
2018-05-05T04:23:09.654Z,1.48
2018-05-05T04:25:37.114Z,1.85
2018-05-05T04:28:04.530Z,1.20
2018-05-05T04:30:32.054Z,1.65
2018-05-05T04:32:59.525Z,1.15
2018-05-05T04:35:26.956Z,1.30
2018-05-05T04:37:54.463Z,1.30
2018-05-05T04:40:21.934Z,1.48
2018-05-05T04:42:49.353Z,1.37
2018-05-05T04:45:16.874Z,1.70
2018-05-05T04:47:44.342Z,1.30
2018-05-05T04:50:11.770Z,1.75
2018-05-05T04:52:39.997Z,1.35
2018-05-05T04:55:07.468Z,1.27
2018-05-05T04:57:34.885Z,1.30
2018-05-05T05:00:02.307Z,1.10
2018-05-05T05:02:29.778Z,1.37
2018-05-05T05:04:57.207Z,1.30
2018-05-05T05:07:26.131Z,1.10
2018-05-05T05:09:54.330Z,1.33
2018-05-05T05:12:21.811Z,1.00
2018-05-05T05:14:49.275Z,1.45
2018-05-05T05:17:16.753Z,1.35
2018-05-05T05:19:44.179Z,1.33
2018-05-05T05:22:11.688Z,1.23
2018-05-05T05:24:39.110Z,1.33
2018-05-05T05:27:06.624Z,1.30
2018-05-05T05:29:34.038Z,1.05
2018-05-05T05:32:01.467Z,1.15
2018-05-05T05:34:28.934Z,1.50
2018-05-05T05:36:56.354Z,1.45
2018-05-05T05:39:23.787Z,1.23
2018-05-05T05:41:51.247Z,1.20
2018-05-05T05:44:18.681Z,1.42
2018-05-05T05:46:46.898Z,1.42
2018-05-05T05:49:14.314Z,1.35
2018-05-05T05:51:41.835Z,1.42
2018-05-05T05:54:09.302Z,1.20
2018-05-05T05:56:36.725Z,1.10
2018-05-05T05:59:04.270Z,1.08
2018-05-05T06:01:31.718Z,1.30
2018-05-05T06:03:59.183Z,1.10
2018-05-05T06:06:26.605Z,1.30
2018-05-05T06:08:54.027Z,1.40
2018-05-05T06:11:21.438Z,1.73
2018-05-05T06:13:49.031Z,1.30
2018-05-05T06:16:17.214Z,1.27
2018-05-05T06:18:44.633Z,1.30
2018-05-05T06:21:12.125Z,0.98
2018-05-05T06:23:39.765Z,1.08
2018-05-05T06:26:07.931Z,1.48
2018-05-05T06:28:36.137Z,1.35
2018-05-05T06:31:03.555Z,1.20
2018-05-05T06:33:31.075Z,1.27
2018-05-05T06:35:58.528Z,1.10
2018-05-05T06:38:26.019Z,1.48
2018-05-05T06:40:53.446Z,1.37
2018-05-05T06:43:20.970Z,1.20
2018-05-05T06:45:48.383Z,1.35
2018-05-05T06:48:16.626Z,1.30
2018-05-05T06:50:44.039Z,0.90
2018-05-05T06:53:11.562Z,1.30
2018-05-05T06:55:38.977Z,1.20
2018-05-05T06:58:06.500Z,1.15
2018-05-05T07:00:33.921Z,1.27
2018-05-05T07:03:02.196Z,1.33
2018-05-05T07:05:29.623Z,1.27
2018-05-05T07:07:57.055Z,1.10
2018-05-05T07:10:24.478Z,1.00
2018-05-05T07:12:51.902Z,1.00
2018-05-05T07:15:20.106Z,1.10
2018-05-05T07:17:47.524Z,1.50
2018-05-05T07:20:14.951Z,1.60
2018-05-05T07:22:42.426Z,1.58
2018-05-05T07:25:09.845Z,1.42
2018-05-05T07:27:37.261Z,1.15
2018-05-05T07:30:04.734Z,1.35
2018-05-05T07:32:32.150Z,1.20
2018-05-05T07:34:59.670Z,1.10
2018-05-05T07:37:27.090Z,1.20
2018-05-05T07:39:54.607Z,1.75
2018-05-05T07:42:22.030Z,1.20
2018-05-05T07:44:49.513Z,1.42
2018-05-05T07:47:16.890Z,1.60
2018-05-05T07:49:45.079Z,1.50
2018-05-05T07:52:13.274Z,1.30
2018-05-05T07:54:41.454Z,1.40
2018-05-05T07:57:09.651Z,1.27
2018-05-05T07:59:37.070Z,1.30
2018-05-05T08:02:04.611Z,1.37
2018-05-05T08:04:32.079Z,1.50
2018-05-05T08:06:59.499Z,1.40
2018-05-05T08:09:27.016Z,1.60
2018-05-05T08:11:54.488Z,1.70
2018-05-05T08:14:21.962Z,1.40
2018-05-05T08:16:49.487Z,1.20
2018-05-05T08:19:16.846Z,1.20
2018-05-05T08:21:44.375Z,1.65
2018-05-05T08:24:11.841Z,1.30
2018-05-05T08:26:39.275Z,1.60
2018-05-05T08:29:08.454Z,1.50
2018-05-05T08:31:35.883Z,1.30
2018-05-05T08:34:04.071Z,1.40
2018-05-05T08:36:31.486Z,1.42
2018-05-05T08:38:58.914Z,1.20
2018-05-05T08:41:26.334Z,1.45
2018-05-05T08:43:54.523Z,1.50
2018-05-05T08:46:23.470Z,1.40
2018-05-05T08:48:50.898Z,1.15
2018-05-05T08:51:18.320Z,1.23
2018-05-05T08:53:45.742Z,1.80
2018-05-05T08:56:13.926Z,1.55
2018-05-05T08:58:41.442Z,1.70
2018-05-05T09:01:08.909Z,1.60
2018-05-05T09:03:36.360Z,1.42
2018-05-05T09:06:03.842Z,1.48
2018-05-05T09:08:31.314Z,1.35
2018-05-05T09:10:58.734Z,1.77
2018-05-05T09:13:26.256Z,1.80
2018-05-05T09:15:53.671Z,1.62
2018-05-05T09:18:21.099Z,1.67
2018-05-05T09:20:48.600Z,1.67
2018-05-05T09:23:15.997Z,1.25
2018-05-05T09:25:43.503Z,1.58
2018-05-05T09:28:10.925Z,1.45
2018-05-05T09:30:38.349Z,1.75
2018-05-05T09:33:05.807Z,1.48
2018-05-05T09:35:33.233Z,1.52
2018-05-05T09:38:02.182Z,1.70
2018-05-05T09:40:29.651Z,1.30
2018-05-05T09:42:57.128Z,1.67
2018-05-05T09:45:24.595Z,1.67
2018-05-05T09:47:52.005Z,1.42
2018-05-05T09:50:19.434Z,1.73
2018-05-05T09:52:46.902Z,1.85
2018-05-05T09:55:14.332Z,1.70
2018-05-05T09:57:41.942Z,1.73
2018-05-05T10:00:09.368Z,1.50
2018-05-05T10:02:36.918Z,1.98
2018-05-05T10:05:04.342Z,1.62
2018-05-05T10:07:31.758Z,1.65
2018-05-05T10:09:59.194Z,1.62
2018-05-05T10:12:26.610Z,1.87
2018-05-05T10:14:54.238Z,1.80
2018-05-05T10:17:21.670Z,1.87
2018-05-05T10:19:49.850Z,1.48
2018-05-05T10:22:18.047Z,1.70
2018-05-05T10:24:46.262Z,1.92
2018-05-05T10:27:13.767Z,1.98
2018-05-05T10:29:41.153Z,1.90
2018-05-05T10:32:08.686Z,1.87
2018-05-05T10:34:36.091Z,1.87
2018-05-05T10:37:03.526Z,1.93
2018-05-05T10:39:30.938Z,3.30
2018-05-05T10:41:58.446Z,6.60
2018-05-05T10:44:25.918Z,2.78
2018-05-05T10:46:53.390Z,2.53
2018-05-05T10:49:20.858Z,3.00
2018-05-05T10:51:48.346Z,4.65
2018-05-05T10:54:15.778Z,10.48
2018-05-05T10:56:43.974Z,8.63
2018-05-05T10:59:11.393Z,3.20
2018-05-05T11:01:38.819Z,1.92
2018-05-05T11:04:06.292Z,2.37
2018-05-05T11:06:33.706Z,2.58
2018-05-05T11:09:01.230Z,1.92
2018-05-05T11:11:28.649Z,2.08
2018-05-05T11:13:56.174Z,3.58
2018-05-05T11:16:23.641Z,1.90
2018-05-05T11:18:52.521Z,1.98
2018-05-05T11:21:20.748Z,2.00
2018-05-05T11:23:48.902Z,1.90
2018-05-05T11:26:17.078Z,2.35
2018-05-05T11:28:45.273Z,2.40
2018-05-05T11:31:13.463Z,1.90
2018-05-05T11:33:41.649Z,2.03
2018-05-05T11:36:09.072Z,2.12
2018-05-05T11:38:36.502Z,1.87
2018-05-05T11:41:03.913Z,1.85
2018-05-05T11:43:31.444Z,2.00
2018-05-05T11:45:58.910Z,2.10
2018-05-05T11:48:26.383Z,2.28
2018-05-05T11:50:53.850Z,1.98
2018-05-05T11:53:21.328Z,2.28
2018-05-05T11:55:48.799Z,2.15
2018-05-05T11:58:16.217Z,1.98
2018-05-05T12:00:43.638Z,2.10
2018-05-05T12:03:11.065Z,1.90
2018-05-05T12:05:38.614Z,2.10
2018-05-05T12:08:06.033Z,1.90
2018-05-05T12:10:33.503Z,2.42
2018-05-05T12:13:01.707Z,1.80
2018-05-05T12:15:29.134Z,1.58
2018-05-05T12:17:57.350Z,2.40
2018-05-05T12:20:24.778Z,2.40
2018-05-05T12:22:52.295Z,1.87
2018-05-05T12:25:19.763Z,2.15
2018-05-05T12:27:47.182Z,2.17
2018-05-05T12:30:14.612Z,2.28
2018-05-05T12:32:42.030Z,2.45
2018-05-05T12:35:09.590Z,2.17
2018-05-05T12:37:36.954Z,2.12
2018-05-05T12:40:04.480Z,1.83
2018-05-05T12:42:31.898Z,2.17
2018-05-05T12:44:59.319Z,2.00
2018-05-05T12:47:26.893Z,2.20
2018-05-05T12:49:55.150Z,2.33
2018-05-05T12:52:22.506Z,2.10
2018-05-05T12:54:50.022Z,1.92
2018-05-05T12:57:17.451Z,2.40
2018-05-05T12:59:44.876Z,2.03
2018-05-05T13:02:12.329Z,1.90
2018-05-05T13:04:39.771Z,1.92
2018-05-05T13:07:07.957Z,2.17
2018-05-05T13:09:36.137Z,1.77
2018-05-05T13:12:04.332Z,2.40
2018-05-05T13:14:32.514Z,2.00
2018-05-05T13:17:00.706Z,2.12
2018-05-05T13:19:28.919Z,2.08
2018-05-05T13:21:56.347Z,1.70
2018-05-05T13:24:24.572Z,1.62
2018-05-05T13:26:53.544Z,1.90
2018-05-05T13:29:21.027Z,1.60
2018-05-05T13:31:48.416Z,1.70
2018-05-05T13:34:15.846Z,2.10
2018-05-05T13:36:43.308Z,1.62
2018-05-05T13:39:10.688Z,1.83
2018-05-05T13:41:38.878Z,1.90
2018-05-05T13:44:07.098Z,1.70
2018-05-05T13:46:34.516Z,1.83
2018-05-05T13:49:02.039Z,1.77
2018-05-05T13:51:29.458Z,1.98
2018-05-05T13:53:58.413Z,1.60
2018-05-05T13:56:25.837Z,1.70
2018-05-05T13:58:53.254Z,1.80
2018-05-05T14:01:20.670Z,2.10
2018-05-05T14:03:48.187Z,1.65
2018-05-05T14:06:15.667Z,1.42
2018-05-05T14:08:43.126Z,1.75
2018-05-05T14:11:10.550Z,1.73
2018-05-05T14:13:38.066Z,1.40
2018-05-05T14:16:05.486Z,1.60
2018-05-05T14:18:32.914Z,1.77
2018-05-05T14:21:00.370Z,1.52
2018-05-05T14:23:27.785Z,1.80
2018-05-05T14:25:55.217Z,1.50
2018-05-05T14:28:22.678Z,1.30
2018-05-05T14:30:50.103Z,1.98
2018-05-05T14:33:17.622Z,1.45
2018-05-05T14:35:45.091Z,1.87
2018-05-05T14:38:12.562Z,1.77
2018-05-05T14:40:39.999Z,2.12
2018-05-05T14:43:08.184Z,1.75
2018-05-05T14:45:36.403Z,1.90
2018-05-05T14:48:03.818Z,2.00
2018-05-05T14:50:31.348Z,1.42
2018-05-05T14:52:58.769Z,1.67
2018-05-05T14:55:26.191Z,2.03
2018-05-05T14:57:53.606Z,1.33
2018-05-05T15:00:21.034Z,1.80
2018-05-05T15:02:48.495Z,1.40
2018-05-05T15:05:15.918Z,1.83
2018-05-05T15:07:43.435Z,1.70
2018-05-05T15:10:10.901Z,1.60
2018-05-05T15:12:38.315Z,1.30
2018-05-05T15:15:05.840Z,1.60
2018-05-05T15:17:33.255Z,1.45
2018-05-05T15:20:00.775Z,1.75
2018-05-05T15:22:28.190Z,1.40
2018-05-05T15:24:55.618Z,2.00
2018-05-05T15:27:23.038Z,1.35
2018-05-05T15:29:50.556Z,1.62
2018-05-05T15:32:18.027Z,1.90
2018-05-05T15:34:45.447Z,1.60
2018-05-05T15:37:12.874Z,1.75
2018-05-05T15:39:40.289Z,1.30
2018-05-05T15:42:07.826Z,1.40
2018-05-05T15:44:35.217Z,1.60
2018-05-05T15:47:02.743Z,2.00
2018-05-05T15:49:30.163Z,1.33
2018-05-05T15:51:57.590Z,1.48
2018-05-05T15:54:25.010Z,1.35
2018-05-05T15:56:52.519Z,1.83
2018-05-05T15:59:19.934Z,1.77
2018-05-05T16:01:47.459Z,1.60
2018-05-05T16:04:14.878Z,1.60
2018-05-05T16:06:42.451Z,1.40
2018-05-05T16:09:10.902Z,1.80
2018-05-05T16:11:38.602Z,1.83
2018-05-05T16:14:05.974Z,1.90
2018-05-05T16:16:33.509Z,1.65
2018-05-05T16:19:00.969Z,2.17
2018-05-05T16:21:28.346Z,1.92
2018-05-05T16:23:55.815Z,1.80
2018-05-05T16:26:23.286Z,1.90
2018-05-05T16:28:50.716Z,1.50
2018-05-05T16:31:18.228Z,1.90
2018-05-05T16:33:45.702Z,1.90
2018-05-05T16:36:13.118Z,2.05
2018-05-05T16:38:40.541Z,1.80
2018-05-05T16:41:07.963Z,1.90
2018-05-05T16:43:35.485Z,1.87
2018-05-05T16:46:02.901Z,1.60
2018-05-05T16:48:30.326Z,1.73
2018-05-05T16:50:57.741Z,1.60
2018-05-05T16:53:25.166Z,1.60
2018-05-05T16:55:52.587Z,1.98
2018-05-05T16:58:20.787Z,4.10
2018-05-05T17:00:48.962Z,6.22
2018-05-05T17:03:17.157Z,4.28
2018-05-05T17:05:45.338Z,2.28
2018-05-05T17:08:13.542Z,1.73
2018-05-05T17:10:40.959Z,2.08
2018-05-05T17:13:08.379Z,3.85
2018-05-05T17:15:35.854Z,2.17
2018-05-05T17:18:03.278Z,12.02
2018-05-05T17:20:30.711Z,11.52
2018-05-05T17:22:58.134Z,8.10
2018-05-05T17:25:26.355Z,5.68
2018-05-05T17:27:53.822Z,2.62
2018-05-05T17:30:21.294Z,1.80
2018-05-05T17:32:48.762Z,1.45
2018-05-05T17:35:16.249Z,1.58
2018-05-05T17:37:43.619Z,1.52
2018-05-05T17:40:11.175Z,1.40
2018-05-05T17:42:38.640Z,1.50
2018-05-05T17:45:06.806Z,1.70
2018-05-05T17:47:35.022Z,1.23
2018-05-05T17:50:02.449Z,1.40
2018-05-05T17:52:30.670Z,1.33
2018-05-05T17:54:58.148Z,1.60
2018-05-05T17:57:25.557Z,1.52
2018-05-05T17:59:52.982Z,1.85
2018-05-05T18:02:20.402Z,1.20
2018-05-05T18:04:47.918Z,1.50
2018-05-05T18:07:15.389Z,1.20
2018-05-05T18:09:42.806Z,1.37
2018-05-05T18:12:10.325Z,1.15
2018-05-05T18:14:37.742Z,1.23
2018-05-05T18:17:06.701Z,1.55
2018-05-05T18:19:34.871Z,1.20
2018-05-05T18:22:03.054Z,1.30
2018-05-05T18:24:31.243Z,1.70
2018-05-05T18:26:59.438Z,1.50
2018-05-05T18:29:26.854Z,1.40
2018-05-05T18:31:54.291Z,1.40
2018-05-05T18:34:21.702Z,1.35
2018-05-05T18:36:49.129Z,1.40
2018-05-05T18:39:16.657Z,1.30
2018-05-05T18:41:44.031Z,1.55
2018-05-05T18:44:12.265Z,1.40
2018-05-05T18:46:39.702Z,1.40
2018-05-05T18:49:07.882Z,1.27
2018-05-05T18:51:36.083Z,1.58
2018-05-05T18:54:03.566Z,1.80
2018-05-05T18:56:30.994Z,1.45
2018-05-05T18:58:58.414Z,1.40
2018-05-05T19:01:25.875Z,1.48
2018-05-05T19:03:53.297Z,2.05
2018-05-05T19:06:20.714Z,1.70
2018-05-05T19:08:48.162Z,1.80
2018-05-05T19:11:16.371Z,1.87
2018-05-05T19:13:43.842Z,1.73
2018-05-05T19:16:11.272Z,1.70
2018-05-05T19:18:38.782Z,2.58
2018-05-05T19:21:06.198Z,1.75
2018-05-05T19:23:33.621Z,2.72
2018-05-05T19:26:01.044Z,1.70
2018-05-05T19:28:28.558Z,2.17
2018-05-05T19:30:56.018Z,1.80
2018-05-05T19:33:23.442Z,2.08
2018-05-05T19:35:50.859Z,1.87
2018-05-05T19:38:18.287Z,2.25
2018-05-05T19:40:47.214Z,1.87
2018-05-05T19:43:15.406Z,1.98
2018-05-05T19:45:43.590Z,1.77
2018-05-05T19:48:11.898Z,2.33
2018-05-05T19:50:39.318Z,2.25
2018-05-05T19:53:08.259Z,2.35
2018-05-05T19:55:35.673Z,2.03
2018-05-05T19:58:03.209Z,2.37
2018-05-05T20:00:30.678Z,2.50
2018-05-05T20:02:58.107Z,1.90
2018-05-05T20:07:58.583Z,2.45
2018-05-05T20:10:26.020Z,2.30
2018-05-05T20:12:53.466Z,2.05
2018-05-05T20:15:20.890Z,2.40
2018-05-05T20:17:48.315Z,2.35
2018-05-05T20:20:15.767Z,2.47
2018-05-05T20:22:43.186Z,2.67
2018-05-05T20:25:10.613Z,2.42
2018-05-05T20:27:38.071Z,2.58
2018-05-05T20:30:05.498Z,2.55
2018-05-05T20:32:32.922Z,3.10
2018-05-05T20:35:00.386Z,2.42
2018-05-05T20:37:27.855Z,2.37
2018-05-05T20:39:55.296Z,2.83
2018-05-05T20:42:23.478Z,2.92
2018-05-05T20:44:51.709Z,2.62
2018-05-05T20:47:19.162Z,2.30
2018-05-05T20:49:46.605Z,2.10
2018-05-05T20:52:14.791Z,2.60
2018-05-05T20:54:42.978Z,2.67
2018-05-05T20:57:11.166Z,2.67
2018-05-05T20:59:39.378Z,2.47
2018-05-05T21:02:06.858Z,2.28
2018-05-05T21:04:34.269Z,2.22
2018-05-05T21:07:01.698Z,2.10
2018-05-05T21:09:29.124Z,2.65
2018-05-05T21:11:56.623Z,2.67
2018-05-05T21:14:24.095Z,2.50
2018-05-05T21:16:51.570Z,2.33
2018-05-05T21:19:18.986Z,2.30
2018-05-05T21:21:46.506Z,2.28
2018-05-05T21:24:13.926Z,2.55
2018-05-05T21:26:42.186Z,2.37
2018-05-05T21:29:09.639Z,2.60
2018-05-05T21:31:37.066Z,2.35
2018-05-05T21:34:05.258Z,2.45
2018-05-05T21:36:33.455Z,2.75
2018-05-05T21:39:01.638Z,2.30
2018-05-05T21:41:29.821Z,2.45
2018-05-05T21:43:58.017Z,2.37
2018-05-05T21:46:26.227Z,2.42
2018-05-05T21:48:53.699Z,2.92
2018-05-05T21:51:21.157Z,2.28
2018-05-05T21:53:48.594Z,2.55
2018-05-05T21:56:16.017Z,2.80
2018-05-05T21:58:43.494Z,2.55
2018-05-05T22:01:10.938Z,2.80
2018-05-05T22:03:38.363Z,3.35
2018-05-05T22:06:05.884Z,2.80
2018-05-05T22:08:33.297Z,2.97
2018-05-05T22:11:00.818Z,2.87
2018-05-05T22:13:28.238Z,2.58
2018-05-05T22:15:55.666Z,2.97
2018-05-05T22:18:23.130Z,2.50
2018-05-05T22:20:50.554Z,2.45
2018-05-05T22:23:17.978Z,3.00
2018-05-05T22:25:45.393Z,3.22
2018-05-05T22:28:12.823Z,3.05
2018-05-05T22:30:40.237Z,2.65
2018-05-05T22:33:08.455Z,2.83
2018-05-05T22:35:35.926Z,2.58
2018-05-05T22:38:03.354Z,2.83
2018-05-05T22:40:30.866Z,2.85
2018-05-05T22:42:58.338Z,3.17
2018-05-05T22:45:25.761Z,3.22
2018-05-05T22:47:53.947Z,3.17
2018-05-05T22:50:22.878Z,3.03
2018-05-05T22:52:51.087Z,3.10
2018-05-05T22:55:18.510Z,3.45
2018-05-05T22:57:46.023Z,3.10
2018-05-05T23:00:13.449Z,2.90
2018-05-05T23:02:40.863Z,2.95
2018-05-05T23:05:08.334Z,2.65
2018-05-05T23:07:35.806Z,3.08
2018-05-05T23:10:03.230Z,2.80
2018-05-05T23:12:30.749Z,2.50
2018-05-05T23:14:58.166Z,2.95
2018-05-05T23:17:25.585Z,3.05
2018-05-05T23:19:53.051Z,3.17
2018-05-05T23:22:20.519Z,3.00
2018-05-05T23:24:47.990Z,3.15
2018-05-05T23:27:15.410Z,3.05
2018-05-05T23:29:42.850Z,2.60
2018-05-05T23:32:10.259Z,2.92
2018-05-05T23:34:38.586Z,3.10
2018-05-05T23:37:06.087Z,2.87
2018-05-05T23:39:33.519Z,2.92
2018-05-05T23:42:00.935Z,2.70
2018-05-05T23:44:28.362Z,2.50
2018-05-05T23:46:55.794Z,3.05
2018-05-05T23:49:23.209Z,2.53
2018-05-05T23:51:50.634Z,2.70
2018-05-05T23:54:18.142Z,2.60
2018-05-05T23:56:45.566Z,2.65
2018-05-05T23:59:12.992Z,2.92
